KFBL/FBL METAR and TAF weather

Enter ICAO airport designator
Station Type Date Time Source
KFBL METAR 2021/05/14 07:35 UTC NOAA

KFBL 140735Z AUTO 16004KT 10SM CLR 12/M01 A3023 RMK AO2


Station Type Date Time Source
KFBL Decoded METAR 2021/05/14 07:35 UTC NOAA

Faribault, Faribault Municipal Airport, MN, United States (KFBL) 44-20N 093-19W
May 14, 2021 - 03:35 AM EDT / 2021.05.14 0735 UTC
Wind: from the SSE (160 degrees) at 5 MPH (4 KT):0
Visibility: 10 mile(s):0
Sky conditions: clear
Temperature: 53 F (12 C)
Dew Point: 30 F (-1 C)
Relative Humidity: 40%
Pressure (altimeter): 30.23 in. Hg (1023 hPa)
ob: KFBL 140735Z AUTO 16004KT 10SM CLR 12/M01 A3023 RMK AO2
cycle: 7

Station Type Date Time Source
KFBL TAF UTC NOAA

Error!

Example: see airport list